Time;durP1;ratioP1;P1;durP2;ratioP2;P2;SDS_P1;SDS_P2;PMS_P1;PMS_P2;Temp;Humidity;BMP_temperature;BMP_pressure;BME280_temperature;BME280_humidity;BME280_pressure;Samples;Min_cycle;Max_cycle;Signal;HPM_P1;HPM_P2
2022/04/28 00:01:56;;;;;;;17.60;3.87;;;8.40;99.90;;;;;;5120879;27;20178;-61
2022/04/28 00:04:22;;;;;;;13.80;4.00;;;8.30;99.90;;;;;;5126339;27;20185;-61
2022/04/28 00:06:48;;;;;;;13.83;4.33;;;8.30;99.90;;;;;;5132017;27;20174;-61
2022/04/28 00:09:14;;;;;;;19.43;4.10;;;8.20;99.90;;;;;;5131589;27;20213;-61
2022/04/28 00:11:40;;;;;;;17.17;4.47;;;8.20;99.90;;;;;;5131933;27;20910;-61
2022/04/28 00:14:07;;;;;;;15.23;4.27;;;8.20;99.90;;;;;;5132304;27;20245;-61
2022/04/28 00:16:35;;;;;;;14.43;4.37;;;8.10;99.90;;;;;;5115617;27;20198;-61
2022/04/28 00:19:04;;;;;;;20.30;4.47;;;8.00;99.90;;;;;;5125177;27;20178;-60
2022/04/28 00:21:30;;;;;;;15.13;3.97;;;8.00;99.90;;;;;;5113790;27;20174;-61
2022/04/28 00:23:55;;;;;;;14.70;3.90;;;8.00;99.90;;;;;;5111808;28;20678;-61
2022/04/28 00:26:21;;;;;;;14.93;4.53;;;8.00;99.90;;;;;;5127085;27;20253;-61
2022/04/28 00:28:47;;;;;;;13.67;4.57;;;8.00;99.90;;;;;;5119938;27;20606;-61
2022/04/28 00:31:13;;;;;;;13.53;4.27;;;7.90;99.90;;;;;;5123681;27;20679;-61
2022/04/28 00:33:42;;;;;;;14.13;4.50;;;8.00;99.90;;;;;;5129967;27;20178;-59
2022/04/28 00:36:08;;;;;;;19.40;4.20;;;7.90;99.90;;;;;;5115221;27;20207;-62
2022/04/28 00:38:34;;;;;;;14.70;4.03;;;7.90;99.90;;;;;;5127554;27;20214;-62
2022/04/28 00:41:00;;;;;;;15.07;4.40;;;7.90;99.90;;;;;;5124754;27;20384;-62
2022/04/28 00:43:29;;;;;;;18.07;4.00;;;7.80;99.90;;;;;;5113973;28;20178;-62
2022/04/28 00:45:55;;;;;;;17.97;4.43;;;7.80;99.90;;;;;;5131448;27;20214;-62
2022/04/28 00:51:08;;;;;;;15.13;3.93;;;7.60;99.90;;;;;;5102645;28;20741;-62
2022/04/28 00:53:48;;;;;;;13.67;4.07;;;7.60;99.90;;;;;;5111212;28;20648;-62
2022/04/28 00:56:14;;;;;;;11.43;4.03;;;7.60;99.90;;;;;;5105323;28;20276;-63
2022/04/28 00:58:40;;;;;;;13.53;3.90;;;7.60;99.90;;;;;;5090596;28;20176;-62
2022/04/28 01:01:07;;;;;;;16.57;3.87;;;7.40;99.90;;;;;;5099716;28;20197;-63
2022/04/28 01:03:33;;;;;;;11.80;4.07;;;7.50;99.90;;;;;;5102218;28;20257;-62
2022/04/28 01:05:59;;;;;;;11.23;4.47;;;7.40;99.90;;;;;;5099798;28;20715;-62
2022/04/28 01:08:26;;;;;;;15.83;4.30;;;7.40;99.90;;;;;;5106899;28;20203;-62
2022/04/28 01:10:53;;;;;;;12.67;4.57;;;7.40;99.90;;;;;;5109302;28;20183;-61
2022/04/28 01:13:19;;;;;;;11.30;4.00;;;7.30;99.90;;;;;;5110836;28;20221;-62
2022/04/28 01:15:46;;;;;;;10.90;4.07;;;7.30;99.90;;;;;;5109368;28;20211;-62
2022/04/28 01:18:13;;;;;;;16.97;4.00;;;7.30;99.90;;;;;;5110774;28;20184;-62
2022/04/28 01:20:39;;;;;;;14.77;4.13;;;7.30;99.90;;;;;;5110785;28;20187;-62
2022/04/28 01:23:06;;;;;;;13.43;4.00;;;7.30;99.90;;;;;;5100685;28;20183;-62
2022/04/28 01:25:31;;;;;;;12.07;3.57;;;7.30;99.90;;;;;;5093844;28;20172;-62
2022/04/28 01:27:57;;;;;;;16.07;4.17;;;7.30;99.90;;;;;;5110744;28;20182;-62
2022/04/28 01:30:24;;;;;;;14.57;4.53;;;7.30;99.90;;;;;;5110648;28;20695;-62
2022/04/28 01:32:54;;;;;;;13.67;4.00;;;7.30;99.90;;;;;;5108311;28;20172;-62
2022/04/28 01:35:20;;;;;;;12.73;3.87;;;7.30;99.90;;;;;;5110377;28;20179;-64
2022/04/28 01:37:46;;;;;;;12.60;3.83;;;7.20;99.90;;;;;;5102057;28;20259;-64
2022/04/28 01:40:12;;;;;;;12.73;3.90;;;7.30;99.90;;;;;;5108975;28;20167;-63
2022/04/28 01:42:39;;;;;;;12.23;4.13;;;7.20;99.90;;;;;;5110629;28;20567;-64
2022/04/28 01:45:06;;;;;;;12.10;3.50;;;7.10;99.90;;;;;;5110609;28;20201;-63
2022/04/28 01:47:33;;;;;;;19.23;4.53;;;7.20;99.90;;;;;;5110221;28;20215;-63
2022/04/28 01:49:59;;;;;;;13.83;4.13;;;7.20;99.90;;;;;;5112712;28;20259;-63
2022/04/28 01:55:09;;;;;;;9.03;4.00;;;7.10;99.90;;;;;;5102558;28;20702;-64
2022/04/28 01:57:35;;;;;;;9.27;3.87;;;7.10;99.90;;;;;;5108006;28;20342;-64
2022/04/28 02:00:01;;;;;;;15.07;4.27;;;7.10;99.90;;;;;;5101910;28;20206;-64
2022/04/28 02:02:27;;;;;;;14.13;3.90;;;7.10;99.90;;;;;;5111326;28;20171;-64
2022/04/28 02:04:58;;;;;;;9.47;3.77;;;7.10;99.90;;;;;;5106366;28;20658;-64
2022/04/28 02:07:25;;;;;;;16.60;4.23;;;7.10;99.90;;;;;;5108789;28;20168;-64
2022/04/28 02:09:51;;;;;;;11.97;3.73;;;7.10;99.90;;;;;;5101899;28;20184;-66
2022/04/28 02:12:17;;;;;;;14.07;4.33;;;7.10;99.90;;;;;;5102856;28;20258;-63
2022/04/28 02:14:43;;;;;;;15.93;3.80;;;7.00;99.90;;;;;;5093593;28;20222;-63
2022/04/28 02:17:09;;;;;;;17.97;4.60;;;7.10;99.90;;;;;;5107673;28;20207;-64
2022/04/28 02:19:35;;;;;;;10.60;3.93;;;7.00;99.90;;;;;;5113320;28;20179;-62
2022/04/28 02:22:02;;;;;;;12.33;3.80;;;7.10;99.90;;;;;;5098851;28;20172;-62
2022/04/28 02:24:28;;;;;;;10.33;3.70;;;7.10;99.90;;;;;;5096786;28;20194;-63
2022/04/28 02:26:53;;;;;;;11.17;4.03;;;7.10;99.90;;;;;;5100409;28;20637;-63
2022/04/28 02:29:19;;;;;;;14.63;3.70;;;7.10;99.90;;;;;;5111877;27;20171;-63
2022/04/28 02:31:45;;;;;;;15.93;3.87;;;7.10;99.90;;;;;;5112997;28;20205;-63
2022/04/28 02:34:11;;;;;;;14.53;3.50;;;7.20;99.90;;;;;;5113386;28;20216;-63
2022/04/28 02:36:37;;;;;;;12.50;3.87;;;7.20;99.90;;;;;;5111456;28;20195;-63
2022/04/28 02:39:03;;;;;;;16.10;4.47;;;7.30;99.90;;;;;;5106237;27;20252;-63
2022/04/28 02:41:29;;;;;;;12.23;3.77;;;7.30;99.90;;;;;;5106294;28;20171;-64
2022/04/28 02:43:55;;;;;;;13.50;3.70;;;7.40;99.90;;;;;;5113072;28;20182;-64
2022/04/28 02:46:20;;;;;;;15.77;4.00;;;7.40;99.90;;;;;;5092585;28;20690;-64
2022/04/28 02:48:46;;;;;;;14.33;4.10;;;7.40;99.90;;;;;;5093012;28;20564;-64
2022/04/28 02:51:13;;;;;;;8.03;3.83;;;7.40;99.90;;;;;;5109002;28;20171;-62
2022/04/28 02:53:38;;;;;;;8.37;4.00;;;7.40;99.90;;;;;;5093496;28;20184;-62
2022/04/28 02:56:05;;;;;;;12.03;4.03;;;7.30;99.90;;;;;;5112474;28;20211;-62
2022/04/28 02:58:34;;;;;;;11.77;3.67;;;7.30;99.90;;;;;;5096326;28;20191;-62
2022/04/28 03:01:00;;;;;;;14.77;3.90;;;7.30;99.90;;;;;;5091041;28;20179;-62
2022/04/28 03:03:26;;;;;;;16.50;3.90;;;7.10;99.90;;;;;;5108999;28;20171;-62
2022/04/28 03:11:21;;;;;;;8.00;3.67;;;6.90;99.90;;;;;;5112711;28;20221;-62
2022/04/28 03:13:47;;;;;;;14.27;4.00;;;7.00;99.90;;;;;;5104846;28;20180;-62
2022/04/28 03:16:13;;;;;;;12.40;3.77;;;7.00;99.90;;;;;;5091391;28;20195;-62
2022/04/28 03:18:39;;;;;;;11.20;3.63;;;7.00;99.90;;;;;;5092261;28;20183;-63
2022/04/28 03:21:05;;;;;;;11.77;4.40;;;6.90;99.90;;;;;;5098949;28;20182;-64
2022/04/28 03:23:31;;;;;;;14.00;4.10;;;6.90;99.90;;;;;;5112342;28;20171;-63
2022/04/28 03:25:57;;;;;;;7.53;3.37;;;6.90;99.90;;;;;;5109473;28;20179;-64
2022/04/28 03:28:23;;;;;;;15.60;4.43;;;6.90;99.90;;;;;;5100403;28;20186;-64
2022/04/28 03:30:49;;;;;;;9.67;3.87;;;6.80;99.90;;;;;;5112142;28;20649;-64
2022/04/28 03:33:16;;;;;;;11.17;3.87;;;6.80;99.90;;;;;;5112489;28;20175;-64
2022/04/28 03:35:43;;;;;;;13.43;3.87;;;6.80;99.90;;;;;;5098388;28;20212;-63
2022/04/28 03:38:13;;;;;;;15.50;4.03;;;6.70;99.90;;;;;;5108089;28;20179;-63
2022/04/28 03:40:42;;;;;;;12.30;4.20;;;6.70;99.90;;;;;;5111460;28;20174;-63
2022/04/28 03:43:09;;;;;;;17.63;4.50;;;6.70;99.90;;;;;;5110489;28;20183;-63
2022/04/28 03:45:36;;;;;;;13.03;4.17;;;6.80;99.90;;;;;;5110224;28;20249;-63
2022/04/28 03:48:03;;;;;;;15.93;4.20;;;6.80;99.90;;;;;;5103687;28;20241;-63
2022/04/28 03:50:29;;;;;;;13.33;4.43;;;6.70;99.90;;;;;;5110512;28;20637;-63
2022/04/28 03:52:56;;;;;;;12.57;3.90;;;6.70;99.90;;;;;;5091925;28;20167;-63
2022/04/28 03:55:22;;;;;;;13.00;4.40;;;6.70;99.90;;;;;;5091949;28;20473;-63
2022/04/28 03:57:48;;;;;;;12.10;4.40;;;6.70;99.90;;;;;;5092173;28;20211;-63
2022/04/28 04:00:14;;;;;;;12.60;4.60;;;6.70;99.90;;;;;;5092046;28;20652;-63
2022/04/28 04:02:40;;;;;;;13.27;4.03;;;6.60;99.90;;;;;;5091938;28;20174;-63
2022/04/28 04:05:06;;;;;;;12.97;4.47;;;6.60;99.90;;;;;;5090558;28;20207;-63
2022/04/28 04:07:33;;;;;;;18.97;3.90;;;6.60;99.90;;;;;;5092004;28;20172;-64
2022/04/28 04:09:59;;;;;;;10.10;4.03;;;6.60;99.90;;;;;;5090504;28;20542;-63
2022/04/28 04:12:25;;;;;;;13.53;4.33;;;6.60;99.90;;;;;;5091417;28;20176;-63
2022/04/28 04:14:54;;;;;;;11.83;4.00;;;6.60;99.90;;;;;;5091816;28;20652;-64
2022/04/28 04:17:20;;;;;;;12.33;4.17;;;6.60;99.90;;;;;;5096354;28;20239;-63
2022/04/28 04:19:46;;;;;;;12.67;4.10;;;6.60;99.90;;;;;;5110797;28;20570;-62
2022/04/28 04:22:12;;;;;;;12.13;4.00;;;6.60;99.90;;;;;;5110132;28;20176;-62
2022/04/28 04:24:38;;;;;;;15.97;4.00;;;6.60;99.90;;;;;;5111812;28;20186;-62
2022/04/28 04:27:04;;;;;;;11.50;4.20;;;6.60;99.90;;;;;;5101275;28;20176;-62
2022/04/28 04:29:30;;;;;;;10.67;4.30;;;6.60;99.90;;;;;;5096788;28;20175;-63
2022/04/28 04:34:40;;;;;;;15.83;4.00;;;6.60;99.90;;;;;;5112154;28;20283;-63
2022/04/28 04:37:05;;;;;;;8.27;4.37;;;6.70;99.90;;;;;;5111180;28;20679;-63
2022/04/28 04:39:31;;;;;;;13.83;4.40;;;6.70;99.90;;;;;;5108606;28;20175;-63
2022/04/28 04:41:57;;;;;;;10.93;4.20;;;6.70;99.90;;;;;;5109615;28;20171;-63
2022/04/28 04:44:23;;;;;;;15.73;3.90;;;6.70;99.90;;;;;;5091296;28;20242;-63
2022/04/28 04:46:49;;;;;;;8.87;3.90;;;6.70;99.90;;;;;;5103065;28;20226;-63
2022/04/28 04:49:14;;;;;;;11.03;4.03;;;6.70;99.90;;;;;;5111297;28;20182;-61
2022/04/28 04:51:40;;;;;;;10.37;4.03;;;6.80;99.90;;;;;;5100427;28;20184;-59
2022/04/28 04:54:06;;;;;;;14.27;3.87;;;6.80;99.90;;;;;;5091152;28;20176;-62
2022/04/28 04:56:33;;;;;;;15.23;4.53;;;6.70;99.90;;;;;;5091234;28;20226;-62
2022/04/28 04:58:59;;;;;;;19.60;4.40;;;6.70;99.90;;;;;;5098395;28;20187;-62
2022/04/28 05:01:25;;;;;;;13.03;3.70;;;6.80;99.90;;;;;;5091115;28;20179;-62
2022/04/28 05:03:51;;;;;;;13.57;4.50;;;6.80;99.90;;;;;;5100389;28;20642;-62
2022/04/28 05:06:17;;;;;;;13.03;4.27;;;6.80;99.90;;;;;;5108000;28;20642;-62
2022/04/28 05:08:42;;;;;;;22.20;5.23;;;6.70;99.90;;;;;;5102639;28;20179;-62
2022/04/28 05:11:08;;;;;;;17.87;4.17;;;6.70;99.90;;;;;;5101261;28;20650;-62
2022/04/28 05:13:34;;;;;;;12.23;4.30;;;6.70;99.90;;;;;;5109449;28;20175;-62
2022/04/28 05:15:59;;;;;;;13.37;3.97;;;6.70;99.90;;;;;;5106236;28;20172;-62
2022/04/28 05:18:28;;;;;;;8.27;4.00;;;6.70;99.90;;;;;;5088830;28;20176;-62
2022/04/28 05:20:53;;;;;;;14.37;4.40;;;6.70;99.90;;;;;;5090066;28;20658;-62
2022/04/28 05:23:20;;;;;;;11.73;3.83;;;6.80;99.90;;;;;;5091851;28;20193;-62
2022/04/28 05:25:46;;;;;;;10.03;4.20;;;6.70;99.90;;;;;;5095011;28;20203;-62
2022/04/28 05:28:12;;;;;;;14.80;4.77;;;6.80;99.90;;;;;;5099486;28;20167;-62
2022/04/28 05:30:38;;;;;;;14.33;4.20;;;6.80;99.90;;;;;;5115363;28;20702;-62
2022/04/28 05:33:04;;;;;;;12.70;4.33;;;6.90;99.90;;;;;;5115100;28;20175;-62
2022/04/28 05:35:30;;;;;;;12.07;4.03;;;6.90;99.90;;;;;;5115100;28;20242;-62
2022/04/28 05:37:56;;;;;;;12.73;4.30;;;6.90;99.90;;;;;;5114918;28;20207;-62
2022/04/28 05:40:22;;;;;;;15.03;4.27;;;6.90;99.90;;;;;;5114939;28;20167;-62
2022/04/28 05:45:42;;;;;;;11.27;3.93;;;6.90;99.90;;;;;;5113228;28;20182;-62
2022/04/28 05:48:09;;;;;;;17.63;4.33;;;6.90;99.90;;;;;;5094640;28;20175;-62
2022/04/28 05:50:36;;;;;;;13.93;4.13;;;7.00;99.90;;;;;;5109988;28;20171;-62
2022/04/28 05:53:02;;;;;;;10.47;4.70;;;7.10;99.90;;;;;;5098743;28;20251;-63
2022/04/28 05:55:27;;;;;;;9.50;3.67;;;7.10;99.90;;;;;;5107517;28;20263;-62
2022/04/28 05:57:53;;;;;;;15.30;4.37;;;7.10;99.90;;;;;;5113751;28;20673;-62
2022/04/28 06:00:19;;;;;;;15.90;4.00;;;7.20;99.90;;;;;;5110870;28;20637;-62
2022/04/28 06:02:45;;;;;;;15.80;4.00;;;7.20;99.90;;;;;;5095106;28;20171;-65
2022/04/28 06:05:10;;;;;;;15.37;4.13;;;7.30;99.90;;;;;;5113275;28;20265;-62
2022/04/28 06:07:36;;;;;;;12.17;4.43;;;7.30;99.90;;;;;;5113828;28;20182;-64
2022/04/28 06:10:03;;;;;;;11.53;4.33;;;7.40;99.90;;;;;;5111968;28;20195;-62
2022/04/28 06:12:29;;;;;;;10.13;3.83;;;7.40;99.90;;;;;;5099687;28;20183;-61
2022/04/28 06:14:55;;;;;;;16.60;4.17;;;7.40;99.90;;;;;;5112398;27;20232;-62
2022/04/28 06:17:21;;;;;;;16.80;4.43;;;7.40;99.90;;;;;;5113652;28;20294;-62
2022/04/28 06:19:47;;;;;;;9.27;4.00;;;7.40;99.90;;;;;;5113540;28;20178;-62
2022/04/28 06:22:13;;;;;;;16.97;3.67;;;7.50;99.90;;;;;;5108719;27;20906;-62
2022/04/28 06:24:39;;;;;;;10.60;3.80;;;7.60;99.90;;;;;;5104493;28;20312;-61
2022/04/28 06:27:05;;;;;;;13.53;3.43;;;7.70;99.90;;;;;;5114012;28;20179;-62
2022/04/28 06:29:31;;;;;;;8.03;3.27;;;7.80;99.90;;;;;;5113109;28;20190;-61
2022/04/28 06:31:56;;;;;;;8.17;3.70;;;7.90;99.90;;;;;;5112027;28;20250;-64
2022/04/28 06:34:22;;;;;;;11.53;3.47;;;8.00;99.90;;;;;;5110523;28;20627;-63
2022/04/28 06:36:48;;;;;;;10.13;3.37;;;8.10;99.90;;;;;;5113111;28;20215;-63
2022/04/28 06:39:14;;;;;;;11.43;3.40;;;8.20;99.90;;;;;;5112117;28;20175;-63
2022/04/28 06:41:40;;;;;;;14.17;3.30;;;8.30;99.90;;;;;;5103398;28;20175;-63
2022/04/28 06:44:06;;;;;;;14.10;3.53;;;8.50;99.90;;;;;;5113446;28;20591;-63
2022/04/28 06:46:32;;;;;;;10.40;3.53;;;8.60;99.90;;;;;;5111772;28;20206;-63
2022/04/28 06:48:57;;;;;;;6.47;3.07;;;8.70;99.90;;;;;;5103514;27;20175;-63
2022/04/28 06:51:24;;;;;;;10.33;3.63;;;8.80;99.90;;;;;;5088931;28;20183;-63
2022/04/28 06:53:50;;;;;;;15.73;3.63;;;8.80;99.90;;;;;;5108295;28;20175;-67
2022/04/28 06:56:16;;;;;;;17.07;4.13;;;8.90;99.90;;;;;;5106826;28;20654;-57
2022/04/28 06:58:42;;;;;;;14.70;3.80;;;8.90;99.90;;;;;;5105607;28;20210;-56
2022/04/28 07:01:08;;;;;;;13.33;4.13;;;9.10;99.90;;;;;;5095364;28;20172;-55
2022/04/28 07:03:34;;;;;;;12.00;3.67;;;9.30;99.90;;;;;;5111939;28;20183;-56
2022/04/28 07:06:00;;;;;;;16.47;3.50;;;9.50;99.90;;;;;;5102178;28;20224;-62
2022/04/28 07:08:26;;;;;;;15.33;3.27;;;9.60;99.90;;;;;;5096774;28;20171;-62
2022/04/28 07:10:52;;;;;;;13.33;3.40;;;9.80;99.90;;;;;;5110449;28;20537;-62
2022/04/28 07:13:18;;;;;;;14.03;3.17;;;9.80;99.90;;;;;;5106901;28;20175;-62
2022/04/28 07:15:43;;;;;;;11.27;3.70;;;10.00;99.90;;;;;;5091554;28;20164;-62
2022/04/28 07:18:11;;;;;;;13.97;3.43;;;10.60;99.90;;;;;;5091791;28;20196;-62
2022/04/28 07:20:38;;;;;;;13.53;3.57;;;10.20;99.90;;;;;;5092244;28;20172;-63
2022/04/28 07:23:03;;;;;;;10.43;3.40;;;10.30;99.90;;;;;;5092116;28;20200;-63
2022/04/28 07:25:30;;;;;;;13.13;2.83;;;10.40;99.90;;;;;;5103486;28;20270;-63
2022/04/28 07:27:57;;;;;;;12.40;3.47;;;10.40;99.90;;;;;;5112765;28;20246;-63
2022/04/28 07:30:23;;;;;;;8.07;3.00;;;10.30;99.90;;;;;;5092882;28;20182;-59
2022/04/28 07:32:51;;;;;;;12.63;3.97;;;10.40;99.90;;;;;;5092291;28;20218;-58
2022/04/28 07:35:18;;;;;;;14.73;3.10;;;10.50;99.90;;;;;;5092258;28;20275;-58
2022/04/28 07:37:45;;;;;;;12.33;3.27;;;10.40;99.90;;;;;;5092269;28;20314;-58
2022/04/28 07:40:11;;;;;;;15.90;3.13;;;10.40;99.90;;;;;;5092212;28;20168;-59
2022/04/28 07:42:37;;;;;;;10.13;3.30;;;10.50;99.90;;;;;;5093616;28;20156;-58
2022/04/28 07:45:04;;;;;;;10.67;3.20;;;10.40;99.90;;;;;;5097805;28;20176;-59
2022/04/28 07:47:30;;;;;;;12.93;3.70;;;10.40;99.90;;;;;;5099807;28;20215;-58
2022/04/28 07:49:56;;;;;;;12.07;3.73;;;10.50;99.90;;;;;;5101826;28;20626;-58
2022/04/28 07:52:22;;;;;;;16.87;3.43;;;10.50;99.90;;;;;;5090932;28;20180;-59
2022/04/28 07:54:49;;;;;;;10.87;3.33;;;10.50;99.90;;;;;;5091180;28;20654;-59
2022/04/28 07:57:15;;;;;;;16.53;3.60;;;10.60;99.90;;;;;;5091101;28;20233;-59
2022/04/28 07:59:42;;;;;;;12.10;4.03;;;10.60;99.90;;;;;;5091144;28;20606;-58
2022/04/28 08:02:14;;;;;;;11.47;3.97;;;10.60;99.90;;;;;;5090934;28;20175;-61
2022/04/28 08:04:40;;;;;;;12.27;3.87;;;10.70;99.90;;;;;;5090218;28;20580;-63
2022/04/28 08:07:05;;;;;;;17.37;3.87;;;10.70;99.90;;;;;;5091676;28;20180;-62
2022/04/28 08:09:31;;;;;;;12.70;3.83;;;10.70;99.90;;;;;;5091333;28;20193;-61
2022/04/28 08:11:57;;;;;;;16.40;3.70;;;10.60;99.90;;;;;;5091338;28;20723;-60
2022/04/28 08:14:24;;;;;;;16.03;4.00;;;10.70;99.90;;;;;;5094752;28;20163;-61
2022/04/28 08:16:51;;;;;;;19.80;4.10;;;10.90;99.90;;;;;;5111481;28;20691;-62
2022/04/28 08:19:19;;;;;;;11.33;3.37;;;11.00;99.90;;;;;;5095906;28;20214;-61
2022/04/28 08:21:45;;;;;;;18.40;3.90;;;10.90;99.90;;;;;;5099233;28;20191;-58
2022/04/28 08:24:11;;;;;;;17.70;4.10;;;11.10;99.90;;;;;;5091487;28;20207;-59
2022/04/28 08:26:37;;;;;;;16.27;3.57;;;11.20;99.90;;;;;;5091266;28;20256;-59
2022/04/28 08:29:04;;;;;;;16.87;3.73;;;11.30;99.90;;;;;;5091144;28;20249;-57
2022/04/28 08:31:30;;;;;;;13.55;4.05;;;11.20;99.90;;;;;;5094584;28;20167;-58
2022/04/28 08:33:56;;;;;;;15.37;3.57;;;11.40;99.90;;;;;;5091331;28;20254;-59
2022/04/28 08:36:22;;;;;;;17.80;3.97;;;11.20;99.90;;;;;;5090846;28;20250;-75
2022/04/28 08:38:48;;;;;;;12.67;3.80;;;11.30;99.90;;;;;;5102049;28;20228;-59
2022/04/28 08:41:19;;;;;;;13.20;3.27;;;11.30;99.90;;;;;;5094903;28;20167;-57
2022/04/28 08:43:46;;;;;;;10.20;3.30;;;11.20;99.90;;;;;;5092309;28;20160;-64
2022/04/28 08:48:57;;;;;;;15.10;3.10;;;11.10;99.90;;;;;;5104484;28;20224;-71
2022/04/28 08:51:25;;;;;;;17.90;3.20;;;11.20;99.90;;;;;;5104555;28;20270;-65
2022/04/28 08:53:52;;;;;;;12.67;3.13;;;11.30;99.90;;;;;;5106546;28;20190;-59
2022/04/28 08:56:19;;;;;;;5.80;3.00;;;11.40;99.90;;;;;;5098414;28;20206;-59
2022/04/28 08:58:46;;;;;;;11.23;3.50;;;11.20;99.90;;;;;;5090917;28;20225;-61
2022/04/28 09:01:13;;;;;;;8.33;2.50;;;11.40;99.90;;;;;;5091083;28;20172;-59
2022/04/28 09:03:41;;;;;;;10.97;3.23;;;11.40;99.90;;;;;;5090844;28;20191;-60
2022/04/28 09:06:19;;;;;;;12.17;3.30;;;11.20;99.90;;;;;;5091684;28;20214;-60
2022/04/28 09:08:46;;;;;;;12.47;2.93;;;11.30;99.90;;;;;;5097731;28;20300;-60
2022/04/28 09:11:21;;;;;;;11.13;3.37;;;11.30;99.90;;;;;;5094019;28;20262;-60
2022/04/28 09:14:15;;;;;;;9.43;2.97;;;11.40;99.90;;;;;;5091029;28;20250;-60
2022/04/28 09:16:43;;;;;;;9.40;2.70;;;11.60;99.90;;;;;;5091053;28;20203;-60
2022/04/28 09:19:11;;;;;;;12.00;2.87;;;11.60;99.90;;;;;;5090838;28;20207;-58
2022/04/28 09:21:37;;;;;;;10.07;2.70;;;11.80;99.90;;;;;;5090935;28;20167;-58
2022/04/28 09:24:04;;;;;;;14.83;2.50;;;11.40;99.90;;;;;;5072370;28;20539;-58
2022/04/28 09:26:35;;;;;;;9.43;3.13;;;11.50;99.90;;;;;;5090344;28;20179;-58
2022/04/28 09:29:04;;;;;;;8.35;2.72;;;11.70;99.90;;;;;;5091203;28;20179;-60
2022/04/28 09:31:34;;;;;;;8.48;2.72;;;11.60;99.90;;;;;;5090208;28;20221;-58
2022/04/28 09:34:14;;;;;;;5.85;2.63;;;12.10;99.90;;;;;;5110645;28;20210;-59
2022/04/28 09:36:42;;;;;;;7.95;2.50;;;12.80;99.90;;;;;;5108239;28;20242;-60
2022/04/28 09:42:29;;;;;;;11.10;2.67;;;13.10;99.90;;;;;;5110557;28;20175;-60
2022/04/28 09:44:50;;;;;;;11.45;2.80;;;13.20;99.90;;;;;;5100667;28;20228;-64
2022/04/28 09:47:17;;;;;;;7.35;2.63;;;13.40;99.90;;;;;;5108713;28;20223;-64
2022/04/28 09:49:52;;;;;;;9.00;2.70;;;13.60;99.90;;;;;;5108650;28;20171;-64
2022/04/28 09:52:42;;;;;;;8.30;2.70;;;13.70;99.90;;;;;;5109200;28;20254;-63
2022/04/28 09:55:08;;;;;;;9.20;2.97;;;13.60;99.90;;;;;;5096517;28;20168;-63
2022/04/28 09:57:34;;;;;;;5.60;2.42;;;13.40;99.90;;;;;;5090295;28;20569;-64
2022/04/28 10:00:00;;;;;;;8.63;2.90;;;13.10;99.90;;;;;;5090480;28;20168;-63
2022/04/28 10:02:27;;;;;;;8.57;2.60;;;13.10;99.90;;;;;;5090651;28;20689;-64
2022/04/28 10:04:55;;;;;;;12.15;3.05;;;13.10;99.90;;;;;;5090648;28;20216;-63
2022/04/28 10:07:22;;;;;;;9.43;2.83;;;12.10;99.90;;;;;;5089518;28;20199;-63
2022/04/28 10:09:50;;;;;;;14.15;2.90;;;12.10;99.90;;;;;;5089294;28;20167;-63
2022/04/28 10:12:20;;;;;;;11.07;2.97;;;12.40;99.90;;;;;;5092557;28;20199;-63
2022/04/28 10:14:48;;;;;;;9.95;3.00;;;12.80;99.90;;;;;;5092050;28;20255;-63
2022/04/28 10:17:19;;;;;;;10.43;3.38;;;12.90;99.90;;;;;;5093916;28;20298;-63
2022/04/28 10:19:53;;;;;;;13.77;3.00;;;13.40;99.90;;;;;;5093659;28;20180;-63
2022/04/28 10:22:29;;;;;;;7.82;2.92;;;13.80;99.90;;;;;;5093213;28;20174;-64
2022/04/28 10:33:26;;;;;;;12.00;3.38;;;13.20;99.90;;;;;;5091858;28;20259;-63
2022/04/28 10:35:57;;;;;;;9.50;2.80;;;13.20;99.90;;;;;;5073667;28;20255;-63
2022/04/28 10:38:38;;;;;;;12.82;2.58;;;13.10;99.90;;;;;;5091842;28;20195;-63
2022/04/28 10:41:06;;;;;;;11.00;3.13;;;13.40;99.90;;;;;;5091703;28;20195;-63
2022/04/28 10:43:32;;;;;;;9.98;3.47;;;13.50;99.90;;;;;;5100262;28;20210;-64
2022/04/28 10:46:28;;;;;;;9.75;3.00;;;12.70;99.90;;;;;;5103984;28;20311;-64
2022/04/28 10:48:59;;;;;;;10.27;2.78;;;12.40;99.90;;;;;;5106567;27;20187;-63
2022/04/28 10:51:30;;;;;;;11.70;3.35;;;12.70;99.90;;;;;;5093460;28;20182;-63
2022/04/28 10:54:12;;;;;;;9.80;3.33;;;13.20;99.90;;;;;;5093146;28;20184;-64
2022/04/28 10:56:48;;;;;;;10.77;3.28;;;13.60;99.90;;;;;;5100060;28;20198;-64
2022/04/28 10:59:35;;;;;;;9.23;3.30;;;13.90;99.90;;;;;;5113464;28;20190;-64
2022/04/28 11:02:10;;;;;;;14.15;3.42;;;14.20;99.90;;;;;;5107978;28;20167;-64
2022/04/28 11:04:37;;;;;;;11.70;3.05;;;14.30;99.90;;;;;;5097398;28;20172;-63
2022/04/28 11:07:08;;;;;;;9.95;3.58;;;14.50;99.90;;;;;;5098147;28;20160;-63
2022/04/28 11:09:38;;;;;;;14.20;3.60;;;14.30;99.90;;;;;;5113248;28;20657;-63
2022/04/28 11:12:11;;;;;;;11.55;3.28;;;14.50;99.90;;;;;;5109078;28;20183;-63
2022/04/28 11:14:45;;;;;;;10.98;2.78;;;14.20;99.90;;;;;;5101930;28;20168;-63
2022/04/28 11:17:12;;;;;;;10.75;3.00;;;14.40;99.90;;;;;;5113055;28;20234;-63
2022/04/28 11:19:38;;;;;;;14.90;3.05;;;14.60;99.90;;;;;;5097990;28;20327;-63
2022/04/28 11:22:03;;;;;;;9.40;3.38;;;14.60;99.90;;;;;;5111565;28;20665;-63
2022/04/28 11:24:30;;;;;;;8.35;3.03;;;14.50;99.90;;;;;;5107329;28;20175;-63
2022/04/28 11:27:00;;;;;;;18.15;3.63;;;14.60;99.90;;;;;;5092416;28;20172;-63
2022/04/28 11:29:28;;;;;;;8.20;3.28;;;14.40;99.90;;;;;;5092401;28;20168;-63
2022/04/28 11:31:54;;;;;;;15.35;3.47;;;13.80;99.90;;;;;;5107002;28;20171;-63
2022/04/28 11:34:20;;;;;;;10.93;3.45;;;13.70;99.90;;;;;;5101626;28;20180;-63
2022/04/28 11:36:46;;;;;;;9.43;3.03;;;13.90;99.90;;;;;;5112462;28;20210;-67
2022/04/28 11:39:12;;;;;;;10.68;3.45;;;13.60;99.90;;;;;;5112541;28;20173;-67
2022/04/28 11:41:42;;;;;;;9.10;3.20;;;13.20;99.90;;;;;;5111875;28;20171;-67
2022/04/28 11:44:15;;;;;;;7.38;3.22;;;13.60;99.90;;;;;;5092635;28;20209;-67
2022/04/28 11:46:44;;;;;;;8.95;3.20;;;14.00;99.90;;;;;;5101797;28;20622;-67
2022/04/28 11:49:10;;;;;;;10.02;3.30;;;14.20;99.90;;;;;;5109166;28;20171;-67
2022/04/28 11:51:37;;;;;;;10.15;3.42;;;14.10;99.90;;;;;;5100132;28;20179;-67
2022/04/28 11:54:04;;;;;;;8.02;3.50;;;14.10;99.90;;;;;;5096518;28;20251;-68
2022/04/28 11:56:33;;;;;;;14.30;3.80;;;14.00;99.90;;;;;;5109304;28;20203;-67
2022/04/28 11:59:02;;;;;;;9.68;3.40;;;14.10;99.90;;;;;;5101944;28;20320;-68
2022/04/28 12:01:32;;;;;;;12.25;3.30;;;14.30;99.90;;;;;;5104703;28;20637;-67
2022/04/28 12:03:59;;;;;;;8.57;3.35;;;13.90;99.90;;;;;;5094878;28;20175;-67
2022/04/28 12:06:26;;;;;;;7.60;2.85;;;14.10;99.90;;;;;;5091808;28;20172;-67
2022/04/28 12:14:34;;;;;;;13.07;3.33;;;14.80;99.90;;;;;;5096341;28;20210;-66
2022/04/28 12:19:51;;;;;;;13.18;3.42;;;15.30;99.90;;;;;;5112056;28;20178;-67
2022/04/28 12:22:35;;;;;;;8.32;3.25;;;15.10;99.90;;;;;;5110156;28;20795;-67
2022/04/28 12:25:15;;;;;;;8.65;3.33;;;15.20;99.90;;;;;;5092029;28;20215;-68
2022/04/28 12:27:44;;;;;;;6.93;2.72;;;15.70;99.90;;;;;;5090919;28;20533;-67
2022/04/28 12:30:17;;;;;;;12.55;3.17;;;16.30;99.90;;;;;;5091109;28;20208;-67
2022/04/28 12:32:54;;;;;;;7.18;3.10;;;16.40;99.90;;;;;;5108695;28;20209;-68
2022/04/28 12:35:22;;;;;;;7.97;3.13;;;16.70;99.90;;;;;;5106511;28;20209;-66
2022/04/28 12:37:54;;;;;;;8.45;3.10;;;16.10;99.90;;;;;;5111634;28;20291;-68
2022/04/28 12:40:19;;;;;;;8.88;4.00;;;16.80;99.90;;;;;;5111585;28;20568;-68
2022/04/28 12:42:47;;;;;;;7.03;2.80;;;17.20;99.90;;;;;;5111177;28;20175;-68
2022/04/28 12:45:13;;;;;;;8.43;3.30;;;17.20;99.90;;;;;;5111198;28;20163;-67
2022/04/28 12:47:41;;;;;;;12.32;3.58;;;17.50;99.90;;;;;;5110024;28;20241;-69
2022/04/28 12:50:24;;;;;;;7.93;3.75;;;17.30;99.90;;;;;;5107348;28;20746;-69
2022/04/28 12:52:51;;;;;;;8.85;3.38;;;17.20;99.90;;;;;;5104829;28;20199;-69
2022/04/28 12:55:19;;;;;;;9.30;3.38;;;17.00;99.90;;;;;;5095899;28;20254;-68
2022/04/28 12:57:49;;;;;;;9.63;3.47;;;17.00;99.90;;;;;;5111205;28;20222;-68
2022/04/28 13:00:18;;;;;;;11.05;3.17;;;16.80;99.90;;;;;;5111472;28;20242;-68
2022/04/28 13:02:50;;;;;;;6.80;3.30;;;16.80;99.90;;;;;;5100680;28;20195;-66
2022/04/28 13:05:18;;;;;;;8.38;3.72;;;16.90;99.90;;;;;;5090277;28;20197;-68
2022/04/28 13:07:44;;;;;;;7.97;3.60;;;17.00;99.90;;;;;;5091284;28;20230;-68
2022/04/28 13:10:15;;;;;;;11.25;3.70;;;16.80;99.90;;;;;;5088911;28;20203;-67
2022/04/28 13:12:41;;;;;;;10.23;3.58;;;16.90;99.90;;;;;;5090862;28;20236;-68
2022/04/28 13:15:07;;;;;;;6.70;3.30;;;17.40;99.90;;;;;;5090714;28;20533;-68
2022/04/28 13:17:33;;;;;;;16.02;3.92;;;17.70;99.90;;;;;;5090923;28;20225;-68
2022/04/28 13:19:59;;;;;;;10.95;3.25;;;18.00;99.90;;;;;;5090618;28;20180;-68
2022/04/28 13:22:26;;;;;;;9.35;3.65;;;17.70;99.90;;;;;;5090378;28;20641;-60
2022/04/28 13:24:51;;;;;;;10.45;3.85;;;17.60;99.90;;;;;;5108425;28;20175;-60
2022/04/28 13:27:17;;;;;;;8.77;3.50;;;17.50;99.90;;;;;;5110736;28;20179;-60